Time;durP1;ratioP1;P1;durP2;ratioP2;P2;SDS_P1;SDS_P2;PMS_P1;PMS_P2;Temp;Humidity;BMP_temperature;BMP_pressure;BME280_temperature;BME280_humidity;BME280_pressure;Samples;Min_cycle;Max_cycle;Signal;HPM_P1;HPM_P2
2021/03/12 00:01:28;;;;;;;2.17;0.80;;;5.00;99.90;;;;;;5001311;28;20450;-93
2021/03/12 00:03:55;;;;;;;1.20;0.60;;;5.00;99.90;;;;;;5001283;28;20441;-94
2021/03/12 00:06:21;;;;;;;2.17;0.90;;;4.90;99.90;;;;;;4999969;28;20491;-95
2021/03/12 00:08:48;;;;;;;1.50;0.50;;;4.90;99.90;;;;;;5000420;28;20436;-93
2021/03/12 00:11:15;;;;;;;1.10;0.77;;;4.90;99.90;;;;;;5001378;28;20413;-94
2021/03/12 00:13:42;;;;;;;2.00;0.70;;;4.80;99.90;;;;;;5000733;28;20428;-93
2021/03/12 00:16:09;;;;;;;3.03;1.10;;;4.70;99.90;;;;;;5001090;28;20431;-94
2021/03/12 00:18:41;;;;;;;1.88;0.90;;;4.70;99.90;;;;;;5001062;28;20920;-94
2021/03/12 00:21:09;;;;;;;6.70;1.60;;;4.60;99.90;;;;;;5000822;28;20428;-95
2021/03/12 00:23:36;;;;;;;3.03;0.68;;;4.60;99.90;;;;;;4999970;28;20444;-92
2021/03/12 00:26:03;;;;;;;2.63;0.90;;;4.60;99.90;;;;;;5000449;28;20432;-94
2021/03/12 00:28:30;;;;;;;4.03;1.05;;;4.60;99.90;;;;;;5000140;28;20432;-93
2021/03/12 00:30:57;;;;;;;2.70;0.93;;;4.50;99.90;;;;;;5001435;28;20413;-93
2021/03/12 00:33:27;;;;;;;6.05;1.20;;;4.50;99.90;;;;;;5000335;28;20428;-93
2021/03/12 00:35:55;;;;;;;3.50;0.82;;;4.50;99.90;;;;;;5000084;28;20424;-93
2021/03/12 00:38:22;;;;;;;5.05;1.15;;;4.40;99.90;;;;;;5000081;28;20421;-94
2021/03/12 00:41:05;;;;;;;1.55;0.93;;;4.40;99.90;;;;;;5000888;28;20421;-93
2021/03/12 00:43:32;;;;;;;2.27;0.97;;;4.40;99.90;;;;;;5000496;28;20432;-94
2021/03/12 00:46:01;;;;;;;3.53;1.30;;;4.40;99.90;;;;;;5001055;28;20428;-95
2021/03/12 00:48:28;;;;;;;2.57;0.77;;;4.40;99.90;;;;;;5004458;28;20445;-93
2021/03/12 00:50:54;;;;;;;3.67;0.95;;;4.30;99.90;;;;;;5001633;28;20432;-94
2021/03/12 00:53:21;;;;;;;3.13;0.98;;;4.30;99.90;;;;;;5003571;28;20428;-93
2021/03/12 00:55:49;;;;;;;4.60;1.30;;;4.30;99.90;;;;;;5000567;28;20796;-93
2021/03/12 00:58:16;;;;;;;2.72;1.13;;;4.30;99.90;;;;;;5001633;28;20448;-94
2021/03/12 01:00:47;;;;;;;1.48;0.77;;;4.20;99.90;;;;;;5001318;28;20416;-95
2021/03/12 01:03:13;;;;;;;1.45;0.70;;;4.20;99.90;;;;;;5000233;28;20459;-94
2021/03/12 01:05:43;;;;;;;2.15;0.70;;;4.20;99.90;;;;;;4999741;28;20441;-93
2021/03/12 01:08:12;;;;;;;4.85;0.70;;;4.10;99.90;;;;;;5000126;28;20421;-93
2021/03/12 01:10:41;;;;;;;2.40;0.80;;;4.10;99.90;;;;;;5018170;28;20419;-92
2021/03/12 01:13:17;;;;;;;0.93;0.55;;;4.00;99.90;;;;;;5000906;28;20431;-94
2021/03/12 01:15:44;;;;;;;2.50;0.80;;;4.00;99.90;;;;;;5000981;28;20916;-94
2021/03/12 01:18:11;;;;;;;0.68;0.65;;;4.00;99.90;;;;;;4999991;28;20452;-95
2021/03/12 01:20:39;;;;;;;1.93;0.90;;;3.90;99.90;;;;;;5000026;28;20424;-93
2021/03/12 01:23:06;;;;;;;2.33;0.80;;;3.90;99.90;;;;;;4999601;28;20424;-94
2021/03/12 01:25:39;;;;;;;3.53;0.73;;;3.80;99.90;;;;;;4999837;28;20408;-94
2021/03/12 01:28:06;;;;;;;3.28;1.30;;;3.80;99.90;;;;;;4999398;28;20432;-95
2021/03/12 01:30:38;;;;;;;3.50;0.77;;;3.80;99.90;;;;;;5000041;28;20481;-94
2021/03/12 01:33:06;;;;;;;2.47;0.88;;;3.70;99.90;;;;;;5001438;28;20424;-93
2021/03/12 01:35:33;;;;;;;3.90;1.23;;;3.70;99.90;;;;;;4999249;28;20424;-94
2021/03/12 01:38:00;;;;;;;1.80;1.00;;;3.60;99.90;;;;;;4999467;28;20444;-93
2021/03/12 01:40:27;;;;;;;3.67;0.90;;;3.60;99.90;;;;;;5000157;28;20413;-94
2021/03/12 01:42:56;;;;;;;5.20;1.10;;;3.60;99.90;;;;;;4999902;28;20460;-95
2021/03/12 01:45:37;;;;;;;3.57;1.13;;;3.60;99.90;;;;;;5000181;28;20421;-94
2021/03/12 01:48:15;;;;;;;2.67;1.20;;;3.50;99.90;;;;;;4999798;28;20925;-95
2021/03/12 01:50:50;;;;;;;3.10;1.03;;;3.50;99.90;;;;;;4999440;28;20435;-94
2021/03/12 01:53:19;;;;;;;4.80;1.08;;;3.40;99.90;;;;;;5000160;28;20877;-94
2021/03/12 01:55:49;;;;;;;5.30;0.88;;;3.30;99.90;;;;;;4999497;28;20440;-94
2021/03/12 01:58:20;;;;;;;5.30;1.15;;;3.30;99.90;;;;;;4998906;28;20427;-93
2021/03/12 02:00:49;;;;;;;2.22;0.98;;;3.20;99.90;;;;;;4999311;28;20491;-93
2021/03/12 02:03:20;;;;;;;5.30;1.40;;;3.20;99.90;;;;;;4999662;28;20453;-94
2021/03/12 02:05:47;;;;;;;3.78;1.35;;;3.20;99.90;;;;;;4998996;28;20525;-95
2021/03/12 02:08:14;;;;;;;1.35;0.90;;;3.10;99.90;;;;;;4997806;28;20507;-94
2021/03/12 02:10:41;;;;;;;4.15;1.02;;;3.10;99.90;;;;;;4999888;28;20412;-94
2021/03/12 02:13:27;;;;;;;3.03;1.50;;;3.10;99.90;;;;;;4999827;28;20427;-96
2021/03/12 02:16:20;;;;;;;3.80;1.27;;;3.10;99.90;;;;;;4999529;28;20424;-93
2021/03/12 02:19:02;;;;;;;2.58;1.00;;;3.00;99.90;;;;;;5000314;28;20770;-95
2021/03/12 02:21:35;;;;;;;2.35;1.30;;;3.10;99.90;;;;;;4999384;28;20435;-94
2021/03/12 02:24:22;;;;;;;1.95;0.90;;;3.00;99.90;;;;;;5000240;28;20812;-93
2021/03/12 02:27:13;;;;;;;2.58;1.05;;;3.00;99.90;;;;;;4999561;28;20484;-93
2021/03/12 02:29:44;;;;;;;2.25;1.10;;;2.90;99.90;;;;;;4998237;28;20401;-93
2021/03/12 02:32:15;;;;;;;3.30;0.80;;;2.90;99.90;;;;;;5001090;28;20779;-95
2021/03/12 02:34:45;;;;;;;3.67;1.30;;;2.90;99.90;;;;;;4999230;28;20453;-94
2021/03/12 02:37:15;;;;;;;1.43;1.00;;;2.90;99.90;;;;;;4998596;28;20412;-95
2021/03/12 02:39:50;;;;;;;3.50;0.73;;;2.80;99.90;;;;;;4999512;28;20420;-94
2021/03/12 02:42:20;;;;;;;2.25;1.00;;;2.70;99.90;;;;;;4999029;28;20432;-94
2021/03/12 02:44:52;;;;;;;2.85;1.50;;;2.70;99.90;;;;;;4998807;28;20524;-96
2021/03/12 02:47:23;;;;;;;1.10;0.65;;;2.60;99.90;;;;;;4999278;28;20439;-94
2021/03/12 02:49:51;;;;;;;1.67;1.10;;;2.50;99.90;;;;;;5000156;28;20416;-93
2021/03/12 02:52:21;;;;;;;2.17;1.00;;;2.50;99.90;;;;;;4998558;28;20492;-93
2021/03/12 02:54:49;;;;;;;1.00;0.80;;;2.40;99.90;;;;;;4998781;28;20448;-94
2021/03/12 02:57:20;;;;;;;3.15;1.20;;;2.40;99.90;;;;;;4997971;28;20504;-93
2021/03/12 02:59:49;;;;;;;1.73;0.90;;;2.40;99.90;;;;;;5016754;28;20439;-93
2021/03/12 03:02:25;;;;;;;3.55;1.10;;;2.40;99.90;;;;;;5015426;28;20416;-93
2021/03/12 03:04:54;;;;;;;3.00;0.90;;;2.40;99.90;;;;;;4997868;28;20452;-94
2021/03/12 03:07:26;;;;;;;4.50;1.20;;;2.40;99.90;;;;;;4997920;28;20914;-92
2021/03/12 03:09:57;;;;;;;2.88;1.17;;;2.20;99.90;;;;;;4998686;28;20420;-94
2021/03/12 03:12:26;;;;;;;2.45;1.13;;;2.20;99.90;;;;;;4999156;28;20424;-96
2021/03/12 03:14:59;;;;;;;1.83;1.15;;;2.30;99.90;;;;;;4982401;28;20448;-93
2021/03/12 03:17:35;;;;;;;2.70;1.15;;;2.20;99.90;;;;;;4998552;28;20459;-92
2021/03/12 03:20:06;;;;;;;3.08;1.00;;;2.20;99.90;;;;;;5002977;28;20460;-94
2021/03/12 03:22:34;;;;;;;1.23;0.77;;;2.20;99.90;;;;;;5005606;28;20428;-94
2021/03/12 03:25:07;;;;;;;4.28;0.93;;;2.20;99.90;;;;;;5002522;28;20436;-94
2021/03/12 03:27:34;;;;;;;1.17;0.60;;;2.20;99.90;;;;;;5002846;28;20428;-94
2021/03/12 03:30:02;;;;;;;0.93;0.70;;;2.10;99.90;;;;;;5002419;28;20507;-94
2021/03/12 03:32:32;;;;;;;3.60;0.77;;;2.10;99.90;;;;;;5002561;28;20949;-95
2021/03/12 03:35:01;;;;;;;5.68;0.95;;;2.10;99.90;;;;;;5003881;28;20428;-94
2021/03/12 03:37:37;;;;;;;3.25;0.65;;;2.10;99.90;;;;;;5001831;28;20519;-94
2021/03/12 03:40:09;;;;;;;1.77;0.65;;;2.10;99.90;;;;;;5002450;28;20427;-95
2021/03/12 03:42:40;;;;;;;3.38;0.80;;;2.10;99.90;;;;;;5002508;28;20413;-94
2021/03/12 03:45:10;;;;;;;2.22;0.80;;;2.10;99.90;;;;;;5002622;28;20949;-95
2021/03/12 03:47:41;;;;;;;0.98;0.77;;;2.10;99.90;;;;;;5002340;28;20421;-95
2021/03/12 03:50:19;;;;;;;5.43;0.80;;;2.00;99.90;;;;;;5002980;28;20417;-95
2021/03/12 03:52:49;;;;;;;2.40;1.00;;;2.10;99.90;;;;;;5002724;28;20428;-95
2021/03/12 03:55:26;;;;;;;2.75;1.08;;;2.00;99.90;;;;;;5002257;28;20429;-95
2021/03/12 03:57:53;;;;;;;2.05;0.90;;;2.10;99.90;;;;;;5002448;28;20425;-95
2021/03/12 04:00:20;;;;;;;1.63;0.65;;;2.20;99.90;;;;;;5001842;28;20768;-95
2021/03/12 04:02:48;;;;;;;4.20;1.10;;;2.20;99.90;;;;;;5002193;28;20425;-93
2021/03/12 04:05:15;;;;;;;2.45;0.82;;;2.20;99.90;;;;;;5001669;28;20432;-94
2021/03/12 04:07:47;;;;;;;2.08;0.93;;;2.20;99.90;;;;;;5001181;28;20448;-94
2021/03/12 04:10:17;;;;;;;1.40;0.90;;;2.20;99.90;;;;;;5002516;28;20856;-95
2021/03/12 04:12:44;;;;;;;3.70;1.00;;;2.20;99.90;;;;;;4986389;28;20745;-94
2021/03/12 04:15:16;;;;;;;2.67;1.20;;;2.20;99.90;;;;;;5001424;28;20421;-93
2021/03/12 04:17:45;;;;;;;2.90;1.00;;;2.10;99.90;;;;;;5002127;28;20465;-93
2021/03/12 04:20:13;;;;;;;1.00;0.70;;;2.10;99.90;;;;;;5018377;28;20405;-94
2021/03/12 04:22:43;;;;;;;2.45;1.27;;;2.20;99.90;;;;;;5001901;28;20428;-94
2021/03/12 04:25:11;;;;;;;2.88;1.17;;;2.10;99.90;;;;;;5000870;28;20511;-93
2021/03/12 04:27:37;;;;;;;2.70;1.40;;;2.10;99.90;;;;;;5000958;28;20417;-94
2021/03/12 04:30:05;;;;;;;1.85;1.15;;;2.10;99.90;;;;;;5000993;28;20508;-94
2021/03/12 04:32:33;;;;;;;2.75;1.05;;;2.10;99.90;;;;;;5001267;28;20459;-94
2021/03/12 04:35:04;;;;;;;3.30;0.90;;;2.00;99.90;;;;;;5001744;28;20448;-93
2021/03/12 04:37:35;;;;;;;1.92;0.75;;;2.10;99.90;;;;;;5004380;28;20417;-94
2021/03/12 04:40:16;;;;;;;3.50;0.95;;;2.10;99.90;;;;;;5002656;28;20445;-93
2021/03/12 04:42:45;;;;;;;3.35;1.00;;;2.10;99.90;;;;;;5002867;28;20804;-93
2021/03/12 04:45:13;;;;;;;3.03;1.10;;;2.10;99.90;;;;;;5001195;28;20439;-92
2021/03/12 04:47:40;;;;;;;1.75;0.77;;;2.10;99.90;;;;;;5000846;28;20428;-93
2021/03/12 04:50:09;;;;;;;2.20;0.98;;;2.10;99.90;;;;;;5001116;28;20460;-94
2021/03/12 04:52:38;;;;;;;2.40;0.77;;;2.10;99.90;;;;;;4999632;28;20421;-94
2021/03/12 04:55:12;;;;;;;2.45;0.80;;;2.00;99.90;;;;;;5000376;28;20767;-94
2021/03/12 04:57:39;;;;;;;2.20;0.90;;;2.10;99.90;;;;;;5001270;28;20936;-93
2021/03/12 05:00:08;;;;;;;3.03;0.68;;;2.10;99.90;;;;;;4999601;28;20440;-94
2021/03/12 05:02:35;;;;;;;2.45;0.70;;;2.10;99.90;;;;;;4999888;28;20428;-93
2021/03/12 05:05:06;;;;;;;2.43;0.63;;;2.10;99.90;;;;;;5001024;28;20467;-93
2021/03/12 05:07:34;;;;;;;3.80;0.70;;;2.10;99.90;;;;;;5000179;28;20429;-93
2021/03/12 05:10:05;;;;;;;2.42;0.90;;;2.10;99.90;;;;;;5000943;28;20456;-94
2021/03/12 05:12:32;;;;;;;2.28;0.90;;;2.10;99.90;;;;;;5000711;28;20420;-94
2021/03/12 05:14:59;;;;;;;1.58;0.68;;;2.10;99.90;;;;;;5000657;28;20443;-94
2021/03/12 05:17:26;;;;;;;3.15;1.15;;;2.10;99.90;;;;;;5000327;28;20424;-93
2021/03/12 05:19:53;;;;;;;3.13;0.90;;;2.10;99.90;;;;;;5001730;28;20421;-94
2021/03/12 05:22:20;;;;;;;4.07;0.98;;;2.30;99.90;;;;;;4999998;28;20450;-95
2021/03/12 05:24:46;;;;;;;2.20;0.70;;;2.10;99.90;;;;;;5000267;28;20464;-95
2021/03/12 05:27:13;;;;;;;3.97;0.85;;;2.20;99.90;;;;;;5000671;28;20927;-93
2021/03/12 05:29:40;;;;;;;2.60;0.90;;;2.20;99.90;;;;;;5001654;28;21033;-93
2021/03/12 05:32:13;;;;;;;1.10;0.80;;;2.10;99.90;;;;;;4999479;28;20823;-93
2021/03/12 05:34:40;;;;;;;3.95;1.05;;;2.20;99.90;;;;;;5000943;28;20919;-95
2021/03/12 05:37:07;;;;;;;4.00;1.27;;;2.10;99.90;;;;;;4999590;28;20421;-93
2021/03/12 05:39:34;;;;;;;2.95;1.08;;;2.10;99.90;;;;;;5000293;28;20433;-92
2021/03/12 05:42:00;;;;;;;3.60;1.20;;;2.10;99.90;;;;;;4998395;28;20424;-94
2021/03/12 05:44:27;;;;;;;3.30;0.80;;;2.10;99.90;;;;;;4998461;28;20436;-94
2021/03/12 05:46:54;;;;;;;3.25;1.20;;;2.10;99.90;;;;;;5000311;28;20421;-94
2021/03/12 05:49:22;;;;;;;2.10;1.00;;;2.10;99.90;;;;;;4998441;28;20425;-93
2021/03/12 05:51:49;;;;;;;2.45;0.93;;;2.10;99.90;;;;;;5001600;28;20795;-92
2021/03/12 05:54:20;;;;;;;6.57;1.10;;;2.10;99.90;;;;;;5001561;28;20896;-93
2021/03/12 05:56:47;;;;;;;1.55;0.80;;;2.10;99.90;;;;;;4998576;28;20428;-93
2021/03/12 05:59:14;;;;;;;3.28;1.15;;;2.10;99.90;;;;;;4999497;28;20417;-95
2021/03/12 06:01:40;;;;;;;2.00;1.10;;;2.10;99.90;;;;;;5000092;28;20421;-93
2021/03/12 06:04:07;;;;;;;5.53;2.17;;;2.10;99.90;;;;;;4999125;28;20433;-94
2021/03/12 06:06:35;;;;;;;2.95;1.38;;;2.10;99.90;;;;;;4999315;28;20421;-92
2021/03/12 06:09:04;;;;;;;2.10;0.80;;;2.10;99.90;;;;;;5000372;28;20429;-92
2021/03/12 06:11:32;;;;;;;1.60;0.88;;;2.10;99.90;;;;;;5001768;28;20424;-93
2021/03/12 06:13:58;;;;;;;4.43;1.03;;;2.10;99.90;;;;;;5001428;28;20424;-91
2021/03/12 06:16:27;;;;;;;3.20;0.90;;;2.10;99.90;;;;;;5000678;28;20425;-93
2021/03/12 06:19:11;;;;;;;3.28;1.50;;;2.10;99.90;;;;;;5001315;28;20463;-94
2021/03/12 06:21:39;;;;;;;2.60;1.15;;;2.10;99.90;;;;;;5000986;28;20427;-94
2021/03/12 06:24:25;;;;;;;4.78;1.15;;;2.10;99.90;;;;;;5001596;28;20443;-95
2021/03/12 06:26:52;;;;;;;2.97;1.35;;;2.10;99.90;;;;;;5002764;28;20425;-96
2021/03/12 06:29:31;;;;;;;5.88;1.13;;;2.20;99.90;;;;;;5002336;28;20550;-94
2021/03/12 06:32:11;;;;;;;2.75;0.90;;;2.10;99.90;;;;;;5005412;28;20479;-92
2021/03/12 06:35:00;;;;;;;2.15;0.82;;;2.20;99.90;;;;;;5003671;28;20451;-94
2021/03/12 06:37:35;;;;;;;4.87;1.07;;;2.20;99.90;;;;;;5001547;28;20417;-93
2021/03/12 06:40:36;;;;;;;1.85;0.80;;;2.20;99.90;;;;;;5004628;28;20417;-94
2021/03/12 06:43:25;;;;;;;5.40;1.30;;;2.20;99.90;;;;;;5005127;28;20421;-95
2021/03/12 06:46:16;;;;;;;3.38;1.10;;;2.20;99.90;;;;;;5004738;28;20507;-95
2021/03/12 06:49:00;;;;;;;4.13;1.48;;;2.10;99.90;;;;;;5003781;28;20455;-95
2021/03/12 06:51:29;;;;;;;1.30;0.93;;;2.10;99.90;;;;;;5010445;23;20479;-96
2021/03/12 06:54:07;;;;;;;3.03;1.20;;;2.20;99.90;;;;;;5003884;28;20559;-94
2021/03/12 06:56:38;;;;;;;3.00;1.23;;;2.20;99.90;;;;;;5002269;28;21001;-95
2021/03/12 06:59:14;;;;;;;4.25;1.50;;;2.20;99.90;;;;;;5002109;28;20435;-96
2021/03/12 07:02:07;;;;;;;2.03;1.05;;;2.20;99.90;;;;;;4989047;28;20429;-95
2021/03/12 07:05:05;;;;;;;3.00;1.40;;;2.30;99.90;;;;;;5082653;23;20614;-96
2021/03/12 07:07:44;;;;;;;3.35;1.20;;;2.40;99.90;;;;;;4986654;28;20409;-95
2021/03/12 07:11:16;;;;;;;2.50;0.90;;;2.40;99.90;;;;;;5384718;23;20448;-96
2021/03/12 07:14:34;;;;;;;0.70;0.65;;;2.40;99.90;;;;;;4999354;23;20556;-95
2021/03/12 07:17:24;;;;;;;2.08;0.90;;;2.60;99.90;;;;;;4966351;28;20438;-96
2021/03/12 07:20:30;;;;;;;1.40;0.80;;;2.50;99.90;;;;;;4998122;23;20469;-96
2021/03/12 07:23:10;;;;;;;3.67;1.13;;;2.70;99.90;;;;;;4967298;28;20428;-95
2021/03/12 07:26:48;;;;;;;;;;;;;;;;;;;;;
2021/03/12 07:39:38;;;;;;;4.10;0.90;;;2.80;99.90;;;;;;5146076;23;20436;-95
2021/03/12 07:42:08;;;;;;;3.33;1.08;;;2.90;99.90;;;;;;4966556;28;20431;-91
2021/03/12 07:44:54;;;;;;;2.70;0.95;;;2.90;99.60;;;;;;4972405;28;20444;-96
2021/03/12 07:47:33;;;;;;;2.50;0.70;;;3.00;99.90;;;;;;4987798;28;20428;-96
2021/03/12 07:51:02;;;;;;;0.70;0.55;;;3.00;99.40;;;;;;4976632;28;20423;-94
2021/03/12 07:53:59;;;;;;;2.80;0.85;;;3.20;99.50;;;;;;4986192;28;20928;-96
2021/03/12 07:57:13;;;;;;;2.78;0.90;;;3.30;99.00;;;;;;4971290;28;20403;-96
2021/03/12 07:59:49;;;;;;;2.08;0.63;;;3.30;99.10;;;;;;4947897;29;20450;-93
2021/03/12 08:03:02;;;;;;;1.60;0.90;;;3.30;98.70;;;;;;4942537;29;20419;-94
2021/03/12 08:05:44;;;;;;;0.93;0.50;;;3.30;99.30;;;;;;4934219;29;20460;-92
2021/03/12 08:08:38;;;;;;;2.90;1.10;;;3.50;98.20;;;;;;4930383;29;20491;-93
2021/03/12 08:11:22;;;;;;;4.93;1.00;;;3.40;98.30;;;;;;4935534;29;20427;-94
2021/03/12 08:15:09;;;;;;;3.95;1.00;;;3.50;98.20;;;;;;4941787;29;20490;-95
2021/03/12 08:18:06;;;;;;;3.60;1.20;;;3.60;96.70;;;;;;4948118;29;20506;-94
2021/03/12 08:20:43;;;;;;;3.83;0.80;;;3.60;97.30;;;;;;4936402;29;20444;-96
2021/03/12 08:23:42;;;;;;;1.10;0.63;;;3.80;97.00;;;;;;4910864;29;20467;-93
2021/03/12 08:26:12;;;;;;;1.45;0.70;;;3.80;96.70;;;;;;4927094;29;20451;-96
2021/03/12 08:28:41;;;;;;;2.95;1.00;;;3.80;95.90;;;;;;4929029;29;20502;-95
2021/03/12 08:31:07;;;;;;;4.47;1.00;;;4.00;94.40;;;;;;4929983;29;20439;-92
2021/03/12 08:33:39;;;;;;;2.53;0.83;;;4.20;93.40;;;;;;4929444;29;20435;-95
2021/03/12 08:36:08;;;;;;;1.25;0.52;;;4.20;93.30;;;;;;4934666;29;20441;-95
2021/03/12 08:38:45;;;;;;;5.47;1.23;;;4.20;92.50;;;;;;4966419;28;20925;-92
2021/03/12 08:41:19;;;;;;;3.00;0.70;;;4.10;93.00;;;;;;4964013;29;20418;-92
2021/03/12 08:43:56;;;;;;;1.63;0.80;;;4.00;92.80;;;;;;4951982;29;20449;-93
2021/03/12 08:46:37;;;;;;;2.63;0.77;;;4.00;93.30;;;;;;4967944;29;20428;-91
2021/03/12 08:49:20;;;;;;;2.22;0.85;;;4.00;92.10;;;;;;4969073;29;20440;-92
2021/03/12 08:52:14;;;;;;;1.52;0.63;;;4.10;92.10;;;;;;4953230;29;20445;-94
2021/03/12 08:54:49;;;;;;;1.00;0.52;;;3.90;92.70;;;;;;4954782;29;20446;-94
2021/03/12 08:57:25;;;;;;;5.10;0.88;;;3.80;93.10;;;;;;4952814;29;20505;-92
2021/03/12 09:00:09;;;;;;;1.30;0.67;;;3.80;92.60;;;;;;4953272;29;20483;-95
2021/03/12 09:02:42;;;;;;;1.92;0.90;;;3.70;92.30;;;;;;4967957;29;20412;-94
2021/03/12 09:05:25;;;;;;;1.40;0.50;;;3.80;93.60;;;;;;4947696;29;20504;-94
2021/03/12 09:07:54;;;;;;;2.75;1.00;;;3.90;93.40;;;;;;4949111;29;20426;-93
2021/03/12 09:10:27;;;;;;;1.50;0.70;;;3.90;93.50;;;;;;4946184;29;20438;-91
2021/03/12 09:12:53;;;;;;;3.20;1.00;;;3.90;92.80;;;;;;4943414;29;20426;-91
2021/03/12 09:15:25;;;;;;;3.25;0.90;;;3.90;93.10;;;;;;4943116;29;20429;-90
2021/03/12 09:18:05;;;;;;;1.40;0.52;;;4.20;91.90;;;;;;4943956;29;20450;-91
2021/03/12 09:20:33;;;;;;;1.55;0.50;;;4.30;91.60;;;;;;4942096;29;20422;-93
2021/03/12 09:23:00;;;;;;;3.33;0.70;;;4.30;90.60;;;;;;4942035;29;20433;-93
2021/03/12 09:25:33;;;;;;;2.20;0.60;;;4.30;90.10;;;;;;4941176;29;20449;-90
2021/03/12 09:28:14;;;;;;;1.88;0.77;;;4.50;89.30;;;;;;4942534;29;20766;-93
2021/03/12 09:30:46;;;;;;;3.77;0.73;;;4.60;87.70;;;;;;4941736;29;20434;-90
2021/03/12 09:33:29;;;;;;;4.05;0.80;;;4.60;85.30;;;;;;4941601;29;20834;-89
2021/03/12 09:35:57;;;;;;;3.67;0.98;;;4.70;84.50;;;;;;4958794;28;20753;-88
2021/03/12 09:38:35;;;;;;;3.70;0.88;;;4.70;84.50;;;;;;4959831;28;20432;-89
2021/03/12 09:41:19;;;;;;;3.00;0.80;;;4.50;83.50;;;;;;4960117;28;20435;-92
2021/03/12 09:44:00;;;;;;;1.60;0.75;;;4.50;84.70;;;;;;4944391;28;20440;-90
2021/03/12 09:46:28;;;;;;;2.13;0.55;;;4.50;84.60;;;;;;4959837;28;20783;-90
2021/03/12 09:48:58;;;;;;;1.90;0.85;;;4.80;87.20;;;;;;4976832;28;20512;-93
2021/03/12 09:51:29;;;;;;;3.17;0.80;;;4.90;86.80;;;;;;4959990;28;20807;-91
2021/03/12 09:53:56;;;;;;;1.23;0.50;;;5.20;84.30;;;;;;4960774;28;20764;-90
2021/03/12 09:56:25;;;;;;;2.80;1.00;;;5.30;84.00;;;;;;4960270;28;20416;-92
2021/03/12 09:58:52;;;;;;;1.60;0.85;;;5.60;87.60;;;;;;4960514;28;20428;-91
2021/03/12 10:01:20;;;;;;;1.90;0.60;;;5.90;83.00;;;;;;4960568;28;20463;-91
2021/03/12 10:03:47;;;;;;;1.48;0.70;;;5.60;82.30;;;;;;4944134;28;20520;-89
2021/03/12 10:06:15;;;;;;;2.75;0.85;;;5.20;84.60;;;;;;4976629;28;20958;-90
2021/03/12 10:09:01;;;;;;;4.03;0.70;;;4.80;85.70;;;;;;4960602;28;20511;-94
2021/03/12 10:11:58;;;;;;;2.22;0.85;;;4.60;86.10;;;;;;4976230;28;20436;-94
2021/03/12 10:14:27;;;;;;;3.60;1.10;;;4.30;86.10;;;;;;4882318;29;20431;-91
2021/03/12 10:17:09;;;;;;;2.00;0.70;;;4.00;88.00;;;;;;4882387;29;20443;-91
2021/03/12 10:20:02;;;;;;;4.68;1.55;;;4.20;89.60;;;;;;4882713;29;20431;-90
2021/03/12 10:22:38;;;;;;;2.45;1.10;;;4.40;87.20;;;;;;4881932;29;20435;-93
2021/03/12 10:25:13;;;;;;;2.80;0.77;;;4.70;87.90;;;;;;4897802;29;20597;-90
2021/03/12 10:27:42;;;;;;;1.48;0.90;;;4.70;84.60;;;;;;4882306;29;20907;-90
2021/03/12 10:30:30;;;;;;;1.95;0.80;;;4.80;86.10;;;;;;4881771;29;20506;-92
2021/03/12 10:33:00;;;;;;;3.10;0.82;;;4.70;84.80;;;;;;4881697;29;20953;-90
2021/03/12 10:35:35;;;;;;;2.97;1.08;;;4.90;85.10;;;;;;4881668;29;20434;-89
2021/03/12 10:38:23;;;;;;;1.20;0.70;;;4.60;83.80;;;;;;4881851;29;20458;-91
2021/03/12 10:40:57;;;;;;;1.27;0.73;;;4.50;84.50;;;;;;4897425;29;20434;-91
2021/03/12 10:43:29;;;;;;;0.80;0.50;;;4.80;83.10;;;;;;4882094;29;20431;-93
2021/03/12 10:46:08;;;;;;;2.00;0.88;;;4.90;80.40;;;;;;4881937;29;20479;-90
2021/03/12 10:48:45;;;;;;;2.75;0.60;;;5.30;80.40;;;;;;4881354;29;20449;-89
2021/03/12 10:51:14;;;;;;;6.93;1.20;;;5.70;78.10;;;;;;4932395;28;20949;-89
2021/03/12 10:53:54;;;;;;;1.38;0.63;;;5.80;75.10;;;;;;4959013;28;20491;-89
2021/03/12 10:56:26;;;;;;;0.95;0.70;;;5.70;74.80;;;;;;4958192;28;20424;-91
2021/03/12 10:58:55;;;;;;;0.68;0.55;;;5.50;74.80;;;;;;4974982;28;20432;-91
2021/03/12 11:01:30;;;;;;;2.97;0.70;;;5.50;76.10;;;;;;4958040;28;20431;-89
2021/03/12 11:04:00;;;;;;;4.03;1.15;;;5.20;75.70;;;;;;4975267;28;20963;-92
2021/03/12 11:06:35;;;;;;;2.22;0.90;;;4.80;74.80;;;;;;4975069;28;20471;-90
2021/03/12 11:09:09;;;;;;;1.23;0.60;;;4.70;77.50;;;;;;4957848;28;20943;-94
2021/03/12 11:11:44;;;;;;;1.00;0.70;;;5.10;77.70;;;;;;4958205;28;20455;-92
2021/03/12 11:14:11;;;;;;;2.23;1.00;;;5.00;75.30;;;;;;4957948;28;20438;-93
2021/03/12 11:16:38;;;;;;;2.97;1.02;;;4.90;75.80;;;;;;4958596;28;20483;-92
2021/03/12 11:19:05;;;;;;;2.55;1.00;;;5.40;74.10;;;;;;4958573;28;20435;-90
2021/03/12 11:21:32;;;;;;;2.03;0.70;;;5.70;73.50;;;;;;4958550;28;20431;-91
2021/03/12 11:23:59;;;;;;;2.47;0.95;;;6.20;68.80;;;;;;4958059;28;20923;-95
2021/03/12 11:26:35;;;;;;;1.92;0.93;;;6.20;68.20;;;;;;4960968;28;20436;-93
2021/03/12 11:29:06;;;;;;;4.55;0.90;;;5.90;70.50;;;;;;4981548;28;20749;-96
2021/03/12 11:31:42;;;;;;;1.25;0.63;;;6.30;68.60;;;;;;4967263;28;20439;-96
2021/03/12 11:34:10;;;;;;;1.27;0.80;;;5.70;67.90;;;;;;4951206;29;20430;-95
2021/03/12 11:36:45;;;;;;;3.53;1.08;;;5.50;71.10;;;;;;4942909;29;20426;-94
2021/03/12 11:39:11;;;;;;;2.17;0.60;;;5.50;71.30;;;;;;4945855;29;20465;-95
2021/03/12 11:41:41;;;;;;;2.30;0.80;;;5.50;69.40;;;;;;4949716;29;20504;-95
2021/03/12 11:44:07;;;;;;;0.88;0.50;;;5.60;68.90;;;;;;4948116;29;20433;-95
2021/03/12 11:46:34;;;;;;;1.83;0.80;;;5.50;67.90;;;;;;4947343;29;20440;-94
2021/03/12 11:49:07;;;;;;;2.67;0.90;;;5.10;68.10;;;;;;4949521;29;20461;-96
2021/03/12 11:51:37;;;;;;;1.88;0.68;;;4.90;70.60;;;;;;4946249;29;20528;-95
2021/03/12 11:54:05;;;;;;;3.53;1.07;;;4.80;70.60;;;;;;4963088;29;20430;-94
2021/03/12 11:56:32;;;;;;;1.08;0.43;;;4.70;70.80;;;;;;4953092;28;21002;-96
2021/03/12 11:58:59;;;;;;;2.80;0.98;;;4.80;71.40;;;;;;4964496;28;20432;-96
2021/03/12 12:01:26;;;;;;;3.55;1.15;;;4.90;70.90;;;;;;4963219;28;20432;-95
2021/03/12 12:03:53;;;;;;;2.90;1.00;;;5.00;69.20;;;;;;4964286;28;20420;-96
2021/03/12 12:06:19;;;;;;;2.47;0.70;;;5.10;68.40;;;;;;4965776;28;20432;-95
2021/03/12 12:08:47;;;;;;;2.65;0.60;;;5.10;70.00;;;;;;4967383;28;20509;-96
2021/03/12 12:11:14;;;;;;;2.70;0.73;;;5.10;70.30;;;;;;4965448;28;20478;-95
2021/03/12 12:13:42;;;;;;;2.95;0.70;;;5.00;69.50;;;;;;4967926;28;20430;-95
2021/03/12 12:16:08;;;;;;;2.13;0.70;;;5.20;70.10;;;;;;4966274;28;20507;-96
2021/03/12 12:18:46;;;;;;;2.67;0.60;;;5.40;71.50;;;;;;4965130;28;20428;-96
2021/03/12 12:21:12;;;;;;;1.02;0.43;;;5.50;68.70;;;;;;4967626;28;20424;-94
2021/03/12 12:23:41;;;;;;;2.92;0.68;;;5.60;68.60;;;;;;4967600;28;20428;-95
2021/03/12 12:26:08;;;;;;;7.97;2.00;;;5.70;65.40;;;;;;4967462;28;20428;-94
2021/03/12 12:28:35;;;;;;;3.22;1.33;;;5.70;66.00;;;;;;4966807;28;20455;-95
2021/03/12 12:31:08;;;;;;;2.60;0.90;;;5.60;64.90;;;;;;4976503;28;20455;-96
2021/03/12 12:33:37;;;;;;;1.70;0.50;;;5.50;65.80;;;;;;4972853;28;20440;-95
2021/03/12 12:36:18;;;;;;;1.33;0.50;;;5.50;65.80;;;;;;4965117;28;20475;-96
2021/03/12 12:39:00;;;;;;;1.83;0.73;;;5.30;65.90;;;;;;4966230;28;20444;-95
2021/03/12 12:41:30;;;;;;;2.40;0.40;;;5.30;66.90;;;;;;4967452;28;20455;-96
2021/03/12 12:46:45;;;;;;;3.42;0.70;;;5.20;69.60;;;;;;4982674;28;20432;-95
2021/03/12 12:49:12;;;;;;;2.80;0.73;;;5.40;69.80;;;;;;4962048;28;20432;-96
2021/03/12 12:51:40;;;;;;;2.85;0.88;;;5.90;67.50;;;;;;4962777;28;20428;-96
2021/03/12 12:54:10;;;;;;;1.80;0.80;;;6.40;66.80;;;;;;4981827;28;20428;-96
2021/03/12 12:56:48;;;;;;;2.63;0.73;;;7.00;65.80;;;;;;4967808;28;20483;-96
2021/03/12 12:59:15;;;;;;;2.70;0.88;;;7.20;63.60;;;;;;4970421;28;20420;-96
2021/03/12 13:01:41;;;;;;;1.80;0.50;;;6.90;64.00;;;;;;4969674;28;20493;-94
2021/03/12 13:04:08;;;;;;;1.90;0.55;;;6.40;64.70;;;;;;4970554;28;20460;-96
2021/03/12 13:06:39;;;;;;;5.07;0.70;;;6.40;65.90;;;;;;4970715;28;20452;-96
2021/03/12 13:09:06;;;;;;;1.33;0.60;;;6.70;64.70;;;;;;4966100;28;20428;-96
2021/03/12 13:11:33;;;;;;;1.80;0.60;;;7.50;64.60;;;;;;4967157;28;20432;-94
2021/03/12 13:13:59;;;;;;;2.38;0.60;;;8.30;61.30;;;;;;4965723;28;20435;-96
2021/03/12 13:16:32;;;;;;;2.20;0.77;;;9.10;58.80;;;;;;4964903;28;20432;-95
2021/03/12 13:19:04;;;;;;;2.13;0.70;;;9.10;56.50;;;;;;4968730;28;20424;-96
2021/03/12 13:22:08;;;;;;;1.60;0.50;;;8.90;56.60;;;;;;4987089;28;20434;-96
2021/03/12 13:25:30;;;;;;;1.75;0.57;;;8.80;57.20;;;;;;4931117;29;20804;-95
2021/03/12 13:28:01;;;;;;;1.73;0.53;;;8.90;56.40;;;;;;4923550;29;20431;-96
2021/03/12 13:30:30;;;;;;;2.30;0.60;;;8.30;54.90;;;;;;4926574;29;20425;-96
2021/03/12 13:33:26;;;;;;;1.30;0.50;;;7.90;57.90;;;;;;4928085;29;20434;-95
2021/03/12 13:36:01;;;;;;;1.27;0.40;;;8.20;57.20;;;;;;4913460;29;20457;-96
2021/03/12 13:38:30;;;;;;;2.13;0.85;;;8.50;58.30;;;;;;4939302;23;20496;-96
2021/03/12 13:41:04;;;;;;;3.40;0.50;;;9.50;56.40;;;;;;5009887;28;20427;-96
2021/03/12 13:43:38;;;;;;;3.55;0.90;;;9.70;52.60;;;;;;5011839;28;20428;-94
2021/03/12 13:46:09;;;;;;;1.20;0.70;;;9.50;57.20;;;;;;4993593;28;20458;-96